Time;durP1;ratioP1;P1;durP2;ratioP2;P2;SDS_P1;SDS_P2;PMS_P1;PMS_P2;Temp;Humidity;BMP_temperature;BMP_pressure;BME280_temperature;BME280_humidity;BME280_pressure;Samples;Min_cycle;Max_cycle;Signal;HPM_P1;HPM_P2
2021/09/24 00:02:17;;;;;;;5.83;3.67;;;;;;;;;;4448438;32;20225;-54
2021/09/24 00:04:42;;;;;;;6.17;3.63;;;;;;;;;;4447454;32;20311;-52
2021/09/24 00:07:08;;;;;;;10.20;4.70;;;;;;;;;;4442700;32;20711;-53
2021/09/24 00:09:34;;;;;;;9.17;4.67;;;;;;;;;;4447776;32;20329;-52
2021/09/24 00:11:59;;;;;;;6.90;5.40;;;;;;;;;;4436595;32;20724;-52
2021/09/24 00:14:25;;;;;;;6.37;4.60;;;;;;;;;;4441465;32;20352;-52
2021/09/24 00:16:50;;;;;;;7.23;5.30;;;;;;;;;;4437613;32;20248;-52
2021/09/24 00:19:16;;;;;;;5.27;4.33;;;;;;;;;;4447449;32;20655;-52
2021/09/24 00:21:41;;;;;;;7.33;4.23;;;;;;;;;;4449441;32;20240;-53
2021/09/24 00:24:07;;;;;;;5.70;3.60;;;;;;;;;;4448578;32;20422;-52
2021/09/24 00:26:32;;;;;;;7.93;3.90;;;;;;;;;;4436793;32;20225;-53
2021/09/24 00:28:58;;;;;;;5.00;3.77;;;;;;;;;;4443257;32;20366;-52
2021/09/24 00:31:24;;;;;;;5.87;3.77;;;;;;;;;;4449530;32;20648;-53
2021/09/24 00:33:50;;;;;;;7.33;4.50;;;;;;;;;;4446764;32;20778;-54
2021/09/24 00:36:16;;;;;;;4.63;3.53;;;;;;;;;;4430603;32;20216;-52
2021/09/24 00:38:42;;;;;;;4.00;3.30;;;;;;;;;;4436731;32;20615;-53
2021/09/24 00:41:08;;;;;;;6.60;3.90;;;;;;;;;;4432051;32;20316;-52
2021/09/24 00:43:34;;;;;;;5.47;3.90;;;;;;;;;;4441682;32;20300;-54
2021/09/24 00:46:01;;;;;;;5.97;3.77;;;;;;;;;;4443712;32;20244;-53
2021/09/24 00:48:27;;;;;;;5.57;3.77;;;;;;;;;;4436755;32;20352;-54
2021/09/24 00:50:52;;;;;;;5.03;4.07;;;;;;;;;;4444011;32;20308;-53
2021/09/24 00:53:18;;;;;;;4.63;3.93;;;;;;;;;;4441197;32;20314;-56
2021/09/24 00:55:44;;;;;;;6.13;3.40;;;;;;;;;;4443082;32;20703;-52
2021/09/24 00:58:10;;;;;;;5.53;4.23;;;;;;;;;;4447562;32;20591;-52
2021/09/24 01:00:35;;;;;;;4.80;2.83;;;;;;;;;;4445830;32;20262;-52
2021/09/24 01:03:01;;;;;;;5.37;3.40;;;;;;;;;;4444648;32;20288;-53
2021/09/24 01:05:27;;;;;;;4.80;3.87;;;;;;;;;;4447182;32;20596;-52
2021/09/24 01:07:52;;;;;;;11.00;3.10;;;;;;;;;;4443955;32;20276;-51
2021/09/24 01:10:18;;;;;;;5.13;3.03;;;;;;;;;;4445204;32;21150;-52
2021/09/24 01:12:43;;;;;;;7.20;3.47;;;;;;;;;;4444694;32;20671;-52
2021/09/24 01:15:12;;;;;;;3.57;2.70;;;;;;;;;;4446734;32;20318;-53
2021/09/24 01:17:38;;;;;;;3.97;2.90;;;;;;;;;;4445877;32;20240;-53
2021/09/24 01:20:06;;;;;;;6.47;3.03;;;;;;;;;;4445678;32;20654;-53
2021/09/24 01:22:31;;;;;;;4.23;3.57;;;;;;;;;;4435648;32;20232;-53
2021/09/24 01:24:57;;;;;;;6.00;3.87;;;;;;;;;;4446967;32;20258;-53
2021/09/24 01:27:22;;;;;;;5.73;3.03;;;;;;;;;;4444190;32;20248;-52
2021/09/24 01:29:55;;;;;;;4.73;3.67;;;;;;;;;;4446643;32;20291;-54
2021/09/24 01:32:22;;;;;;;4.60;3.23;;;;;;;;;;4442558;32;20614;-52
2021/09/24 01:34:48;;;;;;;4.97;3.30;;;;;;;;;;4442256;32;20258;-53
2021/09/24 01:37:13;;;;;;;3.50;2.93;;;;;;;;;;4447095;32;20232;-51
2021/09/24 01:39:39;;;;;;;4.30;3.67;;;;;;;;;;4447754;32;20217;-52
2021/09/24 01:42:04;;;;;;;5.33;3.63;;;;;;;;;;4447916;32;20232;-52
2021/09/24 01:44:30;;;;;;;6.40;3.40;;;;;;;;;;4435635;32;20291;-52
2021/09/24 01:46:55;;;;;;;4.60;2.90;;;;;;;;;;4446003;32;20231;-52
2021/09/24 01:49:21;;;;;;;4.17;3.67;;;;;;;;;;4447561;32;20348;-52
2021/09/24 01:51:47;;;;;;;4.60;3.90;;;;;;;;;;4436487;32;20878;-53
2021/09/24 01:54:14;;;;;;;8.00;3.50;;;;;;;;;;4438406;32;20318;-52
2021/09/24 01:56:40;;;;;;;4.33;3.43;;;;;;;;;;4446475;32;20301;-52
2021/09/24 01:59:06;;;;;;;4.57;3.53;;;;;;;;;;4447607;32;20308;-52
2021/09/24 02:01:32;;;;;;;6.03;3.83;;;;;;;;;;4442664;32;20530;-52
2021/09/24 02:03:57;;;;;;;5.33;4.43;;;;;;;;;;4445986;32;20216;-52
2021/09/24 02:06:23;;;;;;;6.93;4.33;;;;;;;;;;4441127;32;20307;-53
2021/09/24 02:08:48;;;;;;;8.37;4.43;;;;;;;;;;4447394;32;20312;-51
2021/09/24 02:11:14;;;;;;;4.63;3.60;;;;;;;;;;4445708;32;20626;-51
2021/09/24 02:13:41;;;;;;;5.97;3.20;;;;;;;;;;4447552;32;20313;-52
2021/09/24 02:16:08;;;;;;;9.63;4.73;;;;;;;;;;4446868;32;20247;-52
2021/09/24 02:18:34;;;;;;;5.20;3.63;;;;;;;;;;4446161;32;20562;-52
2021/09/24 02:21:00;;;;;;;5.63;3.73;;;;;;;;;;4441592;32;20472;-52
2021/09/24 02:23:26;;;;;;;12.87;7.60;;;;;;;;;;4439668;32;20604;-51
2021/09/24 02:25:51;;;;;;;10.93;6.50;;;;;;;;;;4446917;32;20220;-52
2021/09/24 02:28:17;;;;;;;9.30;5.50;;;;;;;;;;4442402;32;20701;-52
2021/09/24 02:30:42;;;;;;;5.63;4.03;;;;;;;;;;4444698;32;20259;-51
2021/09/24 02:33:08;;;;;;;8.43;4.77;;;;;;;;;;4440793;32;20422;-52
2021/09/24 02:35:33;;;;;;;7.20;5.00;;;;;;;;;;4434658;32;20247;-53
2021/09/24 02:37:58;;;;;;;6.40;4.77;;;;;;;;;;4446523;32;20267;-53
2021/09/24 02:40:24;;;;;;;9.37;5.17;;;;;;;;;;4447119;32;20621;-53
2021/09/24 02:42:50;;;;;;;17.10;8.60;;;;;;;;;;4445459;32;20260;-53
2021/09/24 02:45:15;;;;;;;8.23;6.33;;;;;;;;;;4446853;32;20298;-53
2021/09/24 02:47:41;;;;;;;6.60;5.00;;;;;;;;;;4446571;32;20228;-53
2021/09/24 02:50:07;;;;;;;5.33;4.33;;;;;;;;;;4445909;32;20291;-52
2021/09/24 02:52:33;;;;;;;9.73;4.43;;;;;;;;;;4434359;32;20204;-53
2021/09/24 02:54:59;;;;;;;6.13;3.90;;;;;;;;;;4447143;32;20366;-54
2021/09/24 02:57:24;;;;;;;9.13;4.50;;;;;;;;;;4445271;32;20236;-52
2021/09/24 02:59:50;;;;;;;5.10;4.30;;;;;;;;;;4446957;32;20305;-52
2021/09/24 03:02:16;;;;;;;4.60;3.83;;;;;;;;;;4446025;32;20270;-52
2021/09/24 03:04:41;;;;;;;7.63;4.13;;;;;;;;;;4447294;32;20232;-51
2021/09/24 03:07:06;;;;;;;5.50;4.40;;;;;;;;;;4445722;32;20301;-52
2021/09/24 03:09:32;;;;;;;6.83;4.37;;;;;;;;;;4446895;32;20378;-52
2021/09/24 03:11:57;;;;;;;9.37;5.77;;;;;;;;;;4445092;32;20959;-54
2021/09/24 03:14:23;;;;;;;4.97;4.30;;;;;;;;;;4447356;32;20310;-52
2021/09/24 03:16:49;;;;;;;6.67;4.43;;;;;;;;;;4439648;32;20375;-52
2021/09/24 03:19:18;;;;;;;5.57;4.03;;;;;;;;;;4446587;32;20224;-53
2021/09/24 03:21:44;;;;;;;6.37;4.37;;;;;;;;;;4445116;32;20398;-54
2021/09/24 03:24:10;;;;;;;7.43;5.13;;;;;;;;;;4446810;32;20279;-55
2021/09/24 03:26:35;;;;;;;6.77;5.30;;;;;;;;;;4446076;32;20716;-54
2021/09/24 03:29:01;;;;;;;7.03;4.30;;;;;;;;;;4441058;32;20330;-54
2021/09/24 03:31:26;;;;;;;5.90;4.23;;;;;;;;;;4443100;32;20320;-54
2021/09/24 03:33:52;;;;;;;5.67;4.13;;;;;;;;;;4435847;32;20291;-55
2021/09/24 03:36:17;;;;;;;5.20;4.57;;;;;;;;;;4444235;32;20269;-54
2021/09/24 03:38:43;;;;;;;7.07;4.43;;;;;;;;;;4446171;32;20251;-54
2021/09/24 03:41:08;;;;;;;6.23;4.77;;;;;;;;;;4446389;32;20383;-54
2021/09/24 03:43:34;;;;;;;7.57;4.80;;;;;;;;;;4446577;32;20345;-53
2021/09/24 03:45:59;;;;;;;10.70;5.27;;;;;;;;;;4445621;32;20287;-53
2021/09/24 03:48:24;;;;;;;7.37;5.43;;;;;;;;;;4444507;32;20208;-54
2021/09/24 03:50:50;;;;;;;14.23;7.77;;;;;;;;;;4445189;32;20568;-54
2021/09/24 03:53:15;;;;;;;10.70;7.13;;;;;;;;;;4437643;32;20345;-54
2021/09/24 03:55:41;;;;;;;17.53;8.20;;;;;;;;;;4445766;32;20232;-54
2021/09/24 03:58:06;;;;;;;12.70;7.53;;;;;;;;;;4445782;32;20284;-55
2021/09/24 04:00:32;;;;;;;12.17;6.53;;;;;;;;;;4442756;32;20784;-54
2021/09/24 04:02:57;;;;;;;8.90;4.93;;;;;;;;;;4448128;32;20239;-54
2021/09/24 04:05:23;;;;;;;11.37;6.97;;;;;;;;;;4448335;32;20266;-53
2021/09/24 04:07:48;;;;;;;13.40;6.87;;;;;;;;;;4453422;32;20424;-53
2021/09/24 04:10:14;;;;;;;11.87;6.37;;;;;;;;;;4449847;32;20467;-53
2021/09/24 04:12:39;;;;;;;16.93;7.10;;;;;;;;;;4444616;32;20253;-52
2021/09/24 04:15:06;;;;;;;11.67;6.93;;;;;;;;;;4445744;32;20690;-53
2021/09/24 04:17:32;;;;;;;9.80;5.97;;;;;;;;;;4442971;32;20350;-53
2021/09/24 04:19:57;;;;;;;10.27;5.90;;;;;;;;;;4446868;32;20703;-51
2021/09/24 04:22:23;;;;;;;11.03;6.37;;;;;;;;;;4445456;32;20333;-53
2021/09/24 04:24:48;;;;;;;10.27;6.67;;;;;;;;;;4443608;32;20307;-53
2021/09/24 04:27:14;;;;;;;10.23;6.17;;;;;;;;;;4438422;32;20272;-53
2021/09/24 04:29:39;;;;;;;10.27;6.70;;;;;;;;;;4442765;32;20359;-53
2021/09/24 04:32:05;;;;;;;19.07;6.93;;;;;;;;;;4444866;32;20216;-52
2021/09/24 04:34:30;;;;;;;11.37;6.33;;;;;;;;;;4441832;32;20523;-53
2021/09/24 04:36:56;;;;;;;11.87;6.83;;;;;;;;;;4439968;32;20507;-52
2021/09/24 04:39:21;;;;;;;7.50;5.40;;;;;;;;;;4447111;32;20248;-52
2021/09/24 04:41:47;;;;;;;9.90;6.37;;;;;;;;;;4441781;32;20347;-53
2021/09/24 04:44:12;;;;;;;12.00;6.60;;;;;;;;;;4441735;32;20251;-52
2021/09/24 04:46:37;;;;;;;13.07;6.80;;;;;;;;;;4438344;32;21013;-52
2021/09/24 04:49:03;;;;;;;20.17;7.10;;;;;;;;;;4445306;32;20644;-52
2021/09/24 04:51:28;;;;;;;9.27;5.70;;;;;;;;;;4446687;32;20330;-54
2021/09/24 04:53:54;;;;;;;14.53;7.27;;;;;;;;;;4442912;32;20252;-53
2021/09/24 04:56:19;;;;;;;19.70;8.80;;;;;;;;;;4445063;32;20759;-53
2021/09/24 04:58:45;;;;;;;16.50;8.53;;;;;;;;;;4436546;32;20697;-53
2021/09/24 05:01:10;;;;;;;27.10;9.97;;;;;;;;;;4446278;32;20301;-52
2021/09/24 05:03:36;;;;;;;23.10;9.33;;;;;;;;;;4441536;32;20350;-52
2021/09/24 05:06:01;;;;;;;22.67;13.40;;;;;;;;;;4445547;32;20641;-52
2021/09/24 05:08:27;;;;;;;32.67;13.87;;;;;;;;;;4447541;32;20726;-52
2021/09/24 05:10:52;;;;;;;23.07;12.63;;;;;;;;;;4443351;32;20269;-50
2021/09/24 05:13:17;;;;;;;20.60;10.47;;;;;;;;;;4441136;32;20366;-51
2021/09/24 05:15:43;;;;;;;21.30;10.73;;;;;;;;;;4446579;32;20367;-52
2021/09/24 05:18:09;;;;;;;18.57;10.13;;;;;;;;;;4447343;32;20731;-53
2021/09/24 05:20:34;;;;;;;34.47;13.80;;;;;;;;;;4443888;32;20220;-51
2021/09/24 05:23:00;;;;;;;29.17;14.53;;;;;;;;;;4444411;32;20287;-54
2021/09/24 05:25:26;;;;;;;36.23;14.37;;;;;;;;;;4437719;32;20303;-54
2021/09/24 05:27:52;;;;;;;32.83;12.87;;;;;;;;;;4429931;32;20228;-54
2021/09/24 05:30:18;;;;;;;46.43;15.63;;;;;;;;;;4446662;32;20270;-54
2021/09/24 05:32:44;;;;;;;38.87;14.60;;;;;;;;;;4439685;32;20348;-53
2021/09/24 05:35:10;;;;;;;39.73;13.77;;;;;;;;;;4443550;32;20352;-52
2021/09/24 05:37:36;;;;;;;24.47;12.20;;;;;;;;;;4441568;32;20228;-53
2021/09/24 05:40:04;;;;;;;27.23;13.07;;;;;;;;;;4446209;32;20319;-53
2021/09/24 05:42:29;;;;;;;30.93;12.03;;;;;;;;;;4446597;32;20650;-52
2021/09/24 05:44:55;;;;;;;31.40;12.23;;;;;;;;;;4445117;32;20290;-53
2021/09/24 05:47:21;;;;;;;32.67;12.43;;;;;;;;;;4441945;32;20643;-53
2021/09/24 05:49:46;;;;;;;23.50;10.70;;;;;;;;;;4443469;32;20346;-54
2021/09/24 05:52:12;;;;;;;23.93;11.63;;;;;;;;;;4439713;32;20265;-55
2021/09/24 05:54:37;;;;;;;23.37;11.17;;;;;;;;;;4441541;32;20208;-52
2021/09/24 05:57:03;;;;;;;20.17;10.53;;;;;;;;;;4442338;32;20292;-52
2021/09/24 05:59:28;;;;;;;18.50;12.20;;;;;;;;;;4446655;32;20367;-55
2021/09/24 06:01:54;;;;;;;26.50;11.80;;;;;;;;;;4446663;32;20201;-52
2021/09/24 06:04:19;;;;;;;18.87;8.97;;;;;;;;;;4437961;32;20648;-51
2021/09/24 06:06:45;;;;;;;27.27;10.27;;;;;;;;;;4444060;32;20232;-52
2021/09/24 06:09:11;;;;;;;31.43;13.50;;;;;;;;;;4443738;32;20409;-54
2021/09/24 06:11:36;;;;;;;42.33;15.73;;;;;;;;;;4445156;32;20305;-52
2021/09/24 06:14:03;;;;;;;35.50;15.33;;;;;;;;;;4446434;32;20299;-52
2021/09/24 06:16:28;;;;;;;27.73;12.73;;;;;;;;;;4447030;32;20323;-52
2021/09/24 06:18:54;;;;;;;27.60;12.30;;;;;;;;;;4441065;32;20329;-53
2021/09/24 06:21:21;;;;;;;32.17;9.17;;;;;;;;;;4446315;32;20397;-54
2021/09/24 06:23:47;;;;;;;10.17;7.47;;;;;;;;;;4444690;32;20243;-52
2021/09/24 06:26:12;;;;;;;18.47;8.73;;;;;;;;;;4445188;32;21043;-51
2021/09/24 06:28:38;;;;;;;10.63;7.47;;;;;;;;;;4445706;32;20312;-52
2021/09/24 06:31:04;;;;;;;17.53;9.53;;;;;;;;;;4446297;32;20423;-54
2021/09/24 06:33:30;;;;;;;16.57;7.77;;;;;;;;;;4444716;32;20292;-52
2021/09/24 06:35:55;;;;;;;11.23;7.93;;;;;;;;;;4446368;32;20300;-52
2021/09/24 06:38:21;;;;;;;13.20;7.83;;;;;;;;;;4445606;32;20310;-52
2021/09/24 06:40:46;;;;;;;20.90;8.53;;;;;;;;;;4447278;32;20289;-52
2021/09/24 06:43:12;;;;;;;13.53;7.57;;;;;;;;;;4435761;32;20269;-54
2021/09/24 06:45:38;;;;;;;13.87;7.93;;;;;;;;;;4440249;32;20758;-52
2021/09/24 06:48:04;;;;;;;15.20;8.67;;;;;;;;;;4442257;32;20683;-52
2021/09/24 06:50:30;;;;;;;12.73;7.47;;;;;;;;;;4445648;32;20243;-52
2021/09/24 06:52:55;;;;;;;14.13;7.60;;;;;;;;;;4445735;32;20307;-52
2021/09/24 06:55:25;;;;;;;15.37;8.83;;;;;;;;;;4445968;32;20266;-52
2021/09/24 06:57:53;;;;;;;17.13;7.67;;;;;;;;;;4445704;32;20666;-52
2021/09/24 07:00:19;;;;;;;15.03;9.27;;;;;;;;;;4446696;32;20407;-53
2021/09/24 07:02:45;;;;;;;17.50;10.87;;;;;;;;;;4445230;32;20593;-52
2021/09/24 07:05:11;;;;;;;19.67;8.37;;;;;;;;;;4442100;32;20212;-54
2021/09/24 07:07:36;;;;;;;9.97;7.63;;;;;;;;;;4443862;32;20254;-52
2021/09/24 07:10:03;;;;;;;11.80;8.03;;;;;;;;;;4444802;32;20364;-53
2021/09/24 07:12:28;;;;;;;12.83;7.70;;;;;;;;;;4441949;32;20318;-53
2021/09/24 07:14:54;;;;;;;9.37;6.90;;;;;;;;;;4444528;32;20314;-53
2021/09/24 07:17:19;;;;;;;8.57;6.27;;;;;;;;;;4444181;32;20306;-52
2021/09/24 07:19:45;;;;;;;8.30;6.57;;;;;;;;;;4446102;32;20712;-52
2021/09/24 07:22:11;;;;;;;7.03;6.13;;;;;;;;;;4441531;32;20798;-51
2021/09/24 07:24:36;;;;;;;12.10;6.40;;;;;;;;;;4438551;32;20583;-51
2021/09/24 07:27:02;;;;;;;10.80;6.20;;;;;;;;;;4441193;32;20301;-53
2021/09/24 07:29:28;;;;;;;10.50;6.20;;;;;;;;;;4445042;32;20322;-53
2021/09/24 07:31:53;;;;;;;10.97;7.47;;;;;;;;;;4441431;32;20213;-52
2021/09/24 07:34:19;;;;;;;10.33;7.03;;;;;;;;;;4446555;32;20295;-52
2021/09/24 07:36:44;;;;;;;12.30;6.50;;;;;;;;;;4445802;32;20264;-53
2021/09/24 07:39:10;;;;;;;10.50;6.47;;;;;;;;;;4449493;32;20839;-54
2021/09/24 07:41:36;;;;;;;8.67;5.80;;;;;;;;;;4449338;32;20597;-53
2021/09/24 07:44:04;;;;;;;10.03;6.37;;;;;;;;;;4449559;32;20269;-52
2021/09/24 07:46:30;;;;;;;8.33;5.57;;;;;;;;;;4448180;32;20254;-53
2021/09/24 07:48:56;;;;;;;7.03;5.63;;;;;;;;;;4448506;32;20276;-53
2021/09/24 07:51:22;;;;;;;7.93;5.13;;;;;;;;;;4449741;32;20260;-53
2021/09/24 07:53:47;;;;;;;9.80;6.37;;;;;;;;;;4457170;32;20264;-53
2021/09/24 07:56:13;;;;;;;6.70;4.87;;;;;;;;;;4449295;32;20266;-52
2021/09/24 07:58:39;;;;;;;8.07;4.80;;;;;;;;;;4441225;32;20310;-52
2021/09/24 08:01:06;;;;;;;8.57;5.23;;;;;;;;;;4448168;32;20525;-53
2021/09/24 08:03:32;;;;;;;6.53;4.80;;;;;;;;;;4434286;32;20224;-51
2021/09/24 08:05:58;;;;;;;5.37;4.67;;;;;;;;;;4433956;32;20290;-52
2021/09/24 08:08:23;;;;;;;7.30;4.63;;;;;;;;;;4442543;32;20229;-53
2021/09/24 08:10:49;;;;;;;5.63;4.73;;;;;;;;;;4447528;32;20707;-53
2021/09/24 08:13:14;;;;;;;4.63;3.93;;;;;;;;;;4448559;32;20279;-54
2021/09/24 08:15:43;;;;;;;5.70;4.43;;;;;;;;;;4445575;32;20377;-52
2021/09/24 08:18:14;;;;;;;9.87;5.43;;;;;;;;;;4445208;32;20753;-52
2021/09/24 08:20:44;;;;;;;6.53;4.07;;;;;;;;;;4446662;32;20224;-52
2021/09/24 08:23:09;;;;;;;8.23;4.37;;;;;;;;;;4446399;32;20719;-55
2021/09/24 08:25:35;;;;;;;6.97;4.87;;;;;;;;;;4445541;32;20254;-53
2021/09/24 08:28:00;;;;;;;6.27;4.53;;;;;;;;;;4451297;32;20443;-55
2021/09/24 08:30:27;;;;;;;7.70;4.87;;;;;;;;;;4446562;32;20737;-53
2021/09/24 08:32:54;;;;;;;5.47;4.50;;;;;;;;;;4447774;32;20283;-54
2021/09/24 08:35:21;;;;;;;5.73;4.50;;;;;;;;;;4447365;32;20707;-54
2021/09/24 08:37:49;;;;;;;11.87;3.93;;;;;;;;;;4438703;32;20235;-54
2021/09/24 08:40:16;;;;;;;5.53;4.60;;;;;;;;;;4444964;32;20240;-54
2021/09/24 08:42:44;;;;;;;8.97;4.67;;;;;;;;;;4446439;32;20567;-52
2021/09/24 08:45:27;;;;;;;7.70;6.03;;;;;;;;;;4446977;32;20303;-52
2021/09/24 08:48:13;;;;;;;9.40;6.57;;;;;;;;;;4439469;32;20312;-52
2021/09/24 08:50:39;;;;;;;7.90;5.73;;;;;;;;;;4447543;32;20307;-53
2021/09/24 08:53:08;;;;;;;8.67;5.23;;;;;;;;;;4448382;32;20270;-53
2021/09/24 08:55:34;;;;;;;6.83;5.50;;;;;;;;;;4440369;32;20686;-53
2021/09/24 08:58:00;;;;;;;6.93;5.67;;;;;;;;;;4447966;32;20230;-54
2021/09/24 09:00:26;;;;;;;8.80;6.43;;;;;;;;;;4448219;32;20628;-53
2021/09/24 09:03:08;;;;;;;12.37;6.53;;;;;;;;;;4446265;32;20232;-52
2021/09/24 09:05:45;;;;;;;9.73;6.47;;;;;;;;;;4438367;32;20243;-52
2021/09/24 09:08:30;;;;;;;7.18;5.03;;;;;;;;;;4448068;32;20211;-52
2021/09/24 09:11:14;;;;;;;8.43;6.15;;;;;;;;;;4448964;32;20397;-52
2021/09/24 09:13:44;;;;;;;6.63;4.83;;;;;;;;;;4445751;32;20274;-52
2021/09/24 09:16:13;;;;;;;7.27;5.50;;;;;;;;;;4447967;32;20223;-52
2021/09/24 09:18:41;;;;;;;8.00;5.07;;;;;;;;;;4448032;32;20566;-53
2021/09/24 09:21:11;;;;;;;8.50;5.13;;;;;;;;;;4448263;32;20269;-54
2021/09/24 09:23:39;;;;;;;5.07;4.27;;;;;;;;;;4445550;32;20314;-53
2021/09/24 09:26:09;;;;;;;8.03;4.53;;;;;;;;;;4438208;32;20233;-54
2021/09/24 09:28:52;;;;;;;8.40;5.90;;;;;;;;;;4439025;32;20329;-53
2021/09/24 09:31:32;;;;;;;5.62;4.80;;;;;;;;;;4444528;32;20323;-53
2021/09/24 09:34:03;;;;;;;7.82;5.15;;;;;;;;;;4445505;32;20292;-53
2021/09/24 09:36:31;;;;;;;6.60;4.90;;;;;;;;;;4447861;32;20335;-52
2021/09/24 09:38:58;;;;;;;6.05;4.50;;;;;;;;;;4445760;32;20638;-53
2021/09/24 09:41:24;;;;;;;9.93;5.15;;;;;;;;;;4447419;32;20531;-53
2021/09/24 09:44:00;;;;;;;7.12;5.25;;;;;;;;;;4442550;32;20720;-52
2021/09/24 09:46:30;;;;;;;7.53;5.40;;;;;;;;;;4446775;32;20289;-54
2021/09/24 09:49:14;;;;;;;6.18;4.28;;;;;;;;;;4446854;32;20232;-53
2021/09/24 09:51:42;;;;;;;11.13;5.63;;;;;;;;;;4439312;32;20631;-53
2021/09/24 09:54:09;;;;;;;7.47;4.82;;;;;;;;;;4447615;32;20233;-53
2021/09/24 09:56:36;;;;;;;8.05;4.45;;;;;;;;;;4447181;32;20267;-53
2021/09/24 09:59:21;;;;;;;8.95;5.03;;;;;;;;;;4439348;32;20220;-52
2021/09/24 10:01:47;;;;;;;6.87;4.22;;;;;;;;;;4446807;32;21008;-53
2021/09/24 10:04:12;;;;;;;5.68;4.35;;;;;;;;;;4443523;32;20347;-54
2021/09/24 10:06:40;;;;;;;5.30;4.15;;;;;;;;;;4446440;32;20264;-53
2021/09/24 10:09:05;;;;;;;7.47;5.15;;;;;;;;;;4445731;32;20297;-53
2021/09/24 10:11:36;;;;;;;6.25;4.18;;;;;;;;;;4445918;32;20260;-55
2021/09/24 10:14:06;;;;;;;7.78;4.47;;;;;;;;;;4438915;32;20408;-54
2021/09/24 10:16:38;;;;;;;8.05;4.25;;;;;;;;;;4445243;32;20319;-54
2021/09/24 10:19:05;;;;;;;7.45;4.35;;;;;;;;;;4440836;32;20720;-53
2021/09/24 10:21:31;;;;;;;4.72;4.05;;;;;;;;;;4445237;32;20274;-54
2021/09/24 10:23:57;;;;;;;9.82;4.55;;;;;;;;;;4445170;32;20232;-54
2021/09/24 10:26:32;;;;;;;6.07;3.97;;;;;;;;;;4445271;32;20258;-53
2021/09/24 10:29:23;;;;;;;9.27;4.50;;;;;;;;;;4443926;32;20321;-53
2021/09/24 10:31:50;;;;;;;9.02;4.25;;;;;;;;;;4439626;32;20311;-53
2021/09/24 10:34:18;;;;;;;6.00;3.95;;;;;;;;;;4445381;32;20240;-54
2021/09/24 10:36:54;;;;;;;9.30;4.50;;;;;;;;;;4444893;32;20316;-54
2021/09/24 10:39:29;;;;;;;7.93;3.55;;;;;;;;;;4436279;32;20620;-53
2021/09/24 10:42:22;;;;;;;7.90;3.67;;;;;;;;;;4445295;32;20667;-53
2021/09/24 10:45:06;;;;;;;6.05;3.22;;;;;;;;;;4445630;32;20217;-54
2021/09/24 10:47:54;;;;;;;8.20;4.03;;;;;;;;;;4443939;32;20644;-54
2021/09/24 10:50:47;;;;;;;5.25;3.70;;;;;;;;;;4444124;32;20221;-54
2021/09/24 10:53:40;;;;;;;7.40;4.05;;;;;;;;;;4439852;32;20225;-54
2021/09/24 10:56:05;;;;;;;6.12;3.30;;;;;;;;;;4431632;32;20233;-54
2021/09/24 10:58:31;;;;;;;6.30;3.45;;;;;;;;;;4435831;32;20289;-54
2021/09/24 11:00:56;;;;;;;8.90;4.12;;;;;;;;;;4443977;32;20751;-54
2021/09/24 11:03:23;;;;;;;7.25;3.92;;;;;;;;;;4441407;32;20421;-53
2021/09/24 11:05:55;;;;;;;8.35;3.45;;;;;;;;;;4446064;32;20289;-53
2021/09/24 11:08:43;;;;;;;4.22;3.25;;;;;;;;;;4436661;32;20683;-53
2021/09/24 11:11:10;;;;;;;5.50;4.15;;;;;;;;;;4444328;32;20324;-53
2021/09/24 11:13:41;;;;;;;4.78;3.03;;;;;;;;;;4442084;32;20606;-53
2021/09/24 11:16:09;;;;;;;6.70;3.60;;;;;;;;;;4445555;32;20244;-53
2021/09/24 11:18:50;;;;;;;8.40;3.22;;;;;;;;;;4420353;32;20688;-53
2021/09/24 11:21:38;;;;;;;4.80;3.67;;;;;;;;;;4439705;32;20334;-53
2021/09/24 11:24:24;;;;;;;7.53;3.17;;;;;;;;;;4445875;32;20317;-54
2021/09/24 11:27:01;;;;;;;4.05;2.87;;;;;;;;;;4442142;32;20294;-53
2021/09/24 11:29:28;;;;;;;6.03;2.62;;;;;;;;;;4447627;32;20224;-53
2021/09/24 11:31:53;;;;;;;5.03;3.15;;;;;;;;;;4446509;32;20255;-53
2021/09/24 11:34:37;;;;;;;3.90;3.08;;;;;;;;;;4431956;32;20351;-53
2021/09/24 11:37:30;;;;;;;3.65;2.45;;;;;;;;;;4443986;32;20325;-53
2021/09/24 11:40:13;;;;;;;5.37;3.33;;;;;;;;;;4440190;32;20334;-53
2021/09/24 11:42:44;;;;;;;4.30;2.83;;;;;;;;;;4445066;32;20266;-52
2021/09/24 11:45:14;;;;;;;3.00;2.55;;;;;;;;;;4445500;32;20418;-53
2021/09/24 11:47:43;;;;;;;5.07;2.83;;;;;;;;;;4437464;32;20432;-53
2021/09/24 11:50:08;;;;;;;4.97;3.25;;;;;;;;;;4447098;32;20285;-54
2021/09/24 11:52:48;;;;;;;6.93;3.83;;;;;;;;;;4442889;32;20236;-53
2021/09/24 11:55:36;;;;;;;10.77;3.50;;;;;;;;;;4432250;32;20349;-54
2021/09/24 11:58:12;;;;;;;5.82;4.15;;;;;;;;;;4440146;32;20216;-53
2021/09/24 12:00:49;;;;;;;8.43;3.58;;;;;;;;;;4439971;32;20619;-53
2021/09/24 12:03:31;;;;;;;3.85;3.10;;;;;;;;;;4441335;32;20313;-54
2021/09/24 12:06:10;;;;;;;4.35;2.97;;;;;;;;;;4442923;32;20287;-53
2021/09/24 12:08:45;;;;;;;9.07;3.37;;;;;;;;;;4445009;32;20615;-54
2021/09/24 12:11:12;;;;;;;5.32;2.78;;;;;;;;;;4444800;32;20582;-54
2021/09/24 12:13:42;;;;;;;5.28;2.80;;;;;;;;;;4432330;32;20381;-53
2021/09/24 12:16:09;;;;;;;4.00;2.35;;;;;;;;;;4440099;32;20304;-53
2021/09/24 12:18:45;;;;;;;5.75;2.45;;;;;;;;;;4446894;32;20650;-54
2021/09/24 12:21:13;;;;;;;2.67;2.15;;;;;;;;;;4446826;32;20228;-54
2021/09/24 12:23:39;;;;;;;3.55;2.05;;;;;;;;;;4434404;32;20584;-53
2021/09/24 12:26:08;;;;;;;7.93;2.28;;;;;;;;;;4443661;32;20311;-54
2021/09/24 12:28:34;;;;;;;3.85;2.20;;;;;;;;;;4439918;32;20304;-54
2021/09/24 12:31:00;;;;;;;4.30;2.35;;;;;;;;;;4440404;32;20376;-54
2021/09/24 12:33:25;;;;;;;3.62;2.40;;;;;;;;;;4442319;32;20315;-55
2021/09/24 12:36:06;;;;;;;3.40;2.17;;;;;;;;;;4449644;32;20220;-55
2021/09/24 12:38:35;;;;;;;5.22;2.87;;;;;;;;;;4449295;32;20544;-54
2021/09/24 12:41:15;;;;;;;2.67;2.00;;;;;;;;;;4450175;32;20343;-54
2021/09/24 12:43:42;;;;;;;2.78;1.70;;;;;;;;;;4449909;32;21097;-53
2021/09/24 12:46:09;;;;;;;3.83;1.95;;;;;;;;;;4445021;32;20254;-53
2021/09/24 12:48:40;;;;;;;5.28;2.42;;;;;;;;;;4440438;32;20743;-55
2021/09/24 12:51:07;;;;;;;1.90;1.50;;;;;;;;;;4449685;32;20636;-56
2021/09/24 12:53:35;;;;;;;3.78;1.77;;;;;;;;;;4443392;32;20301;-54
2021/09/24 12:56:02;;;;;;;3.53;2.25;;;;;;;;;;4448810;32;20264;-53
2021/09/24 12:58:36;;;;;;;1.90;1.65;;;;;;;;;;4448157;32;20236;-55
2021/09/24 13:01:05;;;;;;;2.10;1.70;;;;;;;;;;4446709;32;20301;-54
2021/09/24 13:03:32;;;;;;;2.95;1.95;;;;;;;;;;4434680;32;20294;-54
2021/09/24 13:05:59;;;;;;;3.37;2.05;;;;;;;;;;4449079;32;20319;-54
2021/09/24 13:08:27;;;;;;;2.90;1.77;;;;;;;;;;4436718;32;20266;-54
2021/09/24 13:10:53;;;;;;;2.17;1.70;;;;;;;;;;4448802;32;20236;-54
2021/09/24 13:13:19;;;;;;;6.30;2.17;;;;;;;;;;4444624;32;20324;-55
2021/09/24 13:15:45;;;;;;;3.35;1.80;;;;;;;;;;4433759;32;20300;-54
2021/09/24 13:18:12;;;;;;;5.50;2.45;;;;;;;;;;4443576;32;20267;-56
2021/09/24 13:20:38;;;;;;;3.80;2.05;;;;;;;;;;4443722;32;20314;-55
2021/09/24 13:23:03;;;;;;;6.72;2.28;;;;;;;;;;4435537;32;20225;-54
2021/09/24 13:25:29;;;;;;;2.08;1.73;;;;;;;;;;4449332;32;20295;-55
2021/09/24 13:27:54;;;;;;;2.65;2.12;;;;;;;;;;4438939;32;20706;-55
2021/09/24 13:30:20;;;;;;;3.15;1.67;;;;;;;;;;4440628;32;20248;-55
2021/09/24 13:32:45;;;;;;;3.85;1.73;;;;;;;;;;4446110;32;20264;-54
2021/09/24 13:35:11;;;;;;;3.78;2.45;;;;;;;;;;4448429;32;20295;-55
2021/09/24 13:37:37;;;;;;;5.60;2.35;;;;;;;;;;4441786;32;20549;-54
2021/09/24 13:40:04;;;;;;;3.30;2.03;;;;;;;;;;4444355;32;20348;-54
2021/09/24 13:42:30;;;;;;;2.28;2.03;;;;;;;;;;4448551;32;20281;-54
2021/09/24 13:44:55;;;;;;;3.72;1.87;;;;;;;;;;4449286;32;20624;-55
2021/09/24 13:47:21;;;;;;;3.53;1.85;;;;;;;;;;4446325;32;20315;-54
2021/09/24 13:49:46;;;;;;;1.98;1.77;;;;;;;;;;4443995;32;20345;-57
2021/09/24 13:52:12;;;;;;;5.32;2.60;;;;;;;;;;4447990;32;20662;-55
2021/09/24 13:54:37;;;;;;;1.77;1.40;;;;;;;;;;4438765;32;20317;-56
2021/09/24 13:57:03;;;;;;;2.20;1.70;;;;;;;;;;4436188;32;20333;-55
2021/09/24 13:59:29;;;;;;;3.15;1.62;;;;;;;;;;4443929;32;20315;-56
2021/09/24 14:01:54;;;;;;;8.15;2.40;;;;;;;;;;4445124;32;20297;-54
2021/09/24 14:04:20;;;;;;;6.68;1.90;;;;;;;;;;4440352;32;20299;-55
2021/09/24 14:06:45;;;;;;;1.80;1.35;;;;;;;;;;4439095;32;20308;-54
2021/09/24 14:09:11;;;;;;;3.40;1.75;;;;;;;;;;4440590;32;20371;-54
2021/09/24 14:11:38;;;;;;;3.60;2.15;;;;;;;;;;4440449;32;20220;-55
2021/09/24 14:14:04;;;;;;;2.85;1.83;;;;;;;;;;4441573;32;21120;-54
2021/09/24 14:16:29;;;;;;;5.20;2.03;;;;;;;;;;4443596;32;20228;-55
2021/09/24 14:18:55;;;;;;;4.37;2.00;;;;;;;;;;4447585;32;20713;-54
2021/09/24 14:21:20;;;;;;;4.37;2.03;;;;;;;;;;4446775;32;20672;-54
2021/09/24 14:23:45;;;;;;;2.78;1.80;;;;;;;;;;4447804;32;20284;-54
2021/09/24 14:26:11;;;;;;;2.55;2.00;;;;;;;;;;4448716;32;20307;-55
2021/09/24 14:28:37;;;;;;;2.60;1.95;;;;;;;;;;4448234;32;20352;-54
2021/09/24 14:31:02;;;;;;;3.60;2.47;;;;;;;;;;4447629;32;20259;-54
2021/09/24 14:33:28;;;;;;;7.70;2.40;;;;;;;;;;4438522;32;20343;-54
2021/09/24 14:35:54;;;;;;;4.85;2.80;;;;;;;;;;4443291;32;20325;-55
2021/09/24 14:38:19;;;;;;;5.07;3.20;;;;;;;;;;4447270;32;20675;-54
2021/09/24 14:40:45;;;;;;;9.90;3.53;;;;;;;;;;4446340;32;20241;-54
2021/09/24 14:43:11;;;;;;;5.32;2.22;;;;;;;;;;4437613;32;20386;-54